Time;durP1;ratioP1;P1;durP2;ratioP2;P2;SDS_P1;SDS_P2;PMS_P1;PMS_P2;Temp;Humidity;BMP_temperature;BMP_pressure;BME280_temperature;BME280_humidity;BME280_pressure;Samples;Min_cycle;Max_cycle;Signal;HPM_P1;HPM_P2
2023/07/20 00:00:33;;;;;;;;;;;;;;;16.22;100.00;101403.28;5057342;28;20535;-51
2023/07/20 00:03:16;;;;;;;;;;;;;;;16.15;100.00;101415.31;5059099;28;20388;-52
2023/07/20 00:05:42;;;;;;;;;;;;;;;16.14;100.00;101415.28;5057015;28;19924;-51
2023/07/20 00:08:08;;;;;;;;;;;;;;;16.12;100.00;101411.78;5062926;28;19925;-51
2023/07/20 00:10:33;;;;;;;;;;;;;;;16.10;100.00;101409.19;5060592;28;19927;-53
2023/07/20 00:12:58;;;;;;;;;;;;;;;16.08;100.00;101404.00;5059699;28;20520;-52
2023/07/20 00:15:23;;;;;;;;;;;;;;;16.08;100.00;101405.72;5061159;28;20393;-52
2023/07/20 00:17:49;;;;;;;;;;;;;;;16.04;100.00;101402.19;5062309;28;19988;-56
2023/07/20 00:20:14;;;;;;;;;;;;;;;16.07;100.00;101422.09;5062984;28;19921;-56
2023/07/20 00:22:39;;;;;;;;;;;;;;;16.03;100.00;101423.78;5063426;28;19924;-56
2023/07/20 00:25:05;;;;;;;;;;;;;;;15.99;100.00;101415.94;5063968;28;20273;-55
2023/07/20 00:27:30;;;;;;;;;;;;;;;15.95;100.00;101421.91;5060304;28;19939;-56
2023/07/20 00:29:55;;;;;;;;;;;;;;;15.93;100.00;101415.84;5059170;28;19924;-56
2023/07/20 00:32:20;;;;;;;;;;;;;;;15.93;100.00;101415.84;5060605;28;20011;-56
2023/07/20 00:34:46;;;;;;;;;;;;;;;15.94;100.00;101420.19;5059510;28;20046;-56
2023/07/20 00:37:12;;;;;;;;;;;;;;;15.90;100.00;101411.50;5044660;28;20347;-56
2023/07/20 00:39:38;;;;;;;;;;;;;;;15.91;100.00;101415.84;5058273;28;19969;-56
2023/07/20 00:42:03;;;;;;;;;;;;;;;15.89;100.00;101419.22;5057094;28;19963;-56
2023/07/20 00:44:28;;;;;;;;;;;;;;;15.85;100.00;101417.47;5045472;28;19949;-56
2023/07/20 00:46:55;;;;;;;;;;;;;;;15.81;100.00;101417.41;5057857;28;19925;-55
2023/07/20 00:49:21;;;;;;;;;;;;;;;15.78;100.00;101413.91;5060605;28;19935;-56
2023/07/20 00:51:47;;;;;;;;;;;;;;;15.74;100.00;101415.56;5059662;28;19929;-56
2023/07/20 00:54:13;;;;;;;;;;;;;;;15.69;100.00;101418.94;5060687;28;20409;-56
2023/07/20 00:56:39;;;;;;;;;;;;;;;15.64;100.00;101424.03;5065027;28;19999;-56
2023/07/20 00:59:04;;;;;;;;;;;;;;;15.64;100.00;101424.03;5062455;28;20293;-56
2023/07/20 01:01:29;;;;;;;;;;;;;;;15.62;100.00;101419.66;5057049;28;19947;-55
2023/07/20 01:03:55;;;;;;;;;;;;;;;15.66;100.00;101416.31;5058162;28;19927;-56
2023/07/20 01:06:26;;;;;;;;;;;;;;;15.65;100.00;101419.72;5058626;28;20003;-57
2023/07/20 01:09:05;;;;;;;;;;;;;;;15.67;100.00;101418.06;5061224;27;19924;-56
2023/07/20 01:11:37;;;;;;;;;;;;;;;15.65;100.00;101424.91;5059197;28;19920;-56
2023/07/20 01:14:03;;;;;;;;;;;;;;;15.64;100.00;101428.34;5056391;28;20396;-56
2023/07/20 01:16:28;;;;;;;;;;;;;;;15.61;100.00;101423.97;5062670;27;19924;-56
2023/07/20 01:18:53;;;;;;;;;;;;;;;15.62;100.00;101430.03;5041563;28;19960;-56
2023/07/20 01:21:24;;;;;;;;;;;;;;;15.60;100.00;101416.19;5060164;28;20011;-56
2023/07/20 01:23:49;;;;;;;;;;;;;;;15.62;100.00;101430.94;5059872;28;19964;-55
2023/07/20 01:26:32;;;;;;;;;;;;;;;15.65;100.00;101424.91;5060072;28;19952;-55
2023/07/20 01:29:01;;;;;;;;;;;;;;;15.63;100.00;101432.66;5062000;28;19916;-55
2023/07/20 01:31:31;;;;;;;;;;;;;;;15.62;100.00;101433.53;5057335;28;19999;-56
2023/07/20 01:33:58;;;;;;;;;;;;;;;15.63;100.00;101430.06;5057573;28;19917;-56
2023/07/20 01:36:27;;;;;;;;;;;;;;;15.63;100.00;101434.38;5060838;28;19924;-55
2023/07/20 01:38:54;;;;;;;;;;;;;;;15.57;100.00;101433.41;5060903;28;19927;-57
2023/07/20 01:41:20;;;;;;;;;;;;;;;15.53;100.00;101422.94;5044633;28;19927;-55
2023/07/20 01:43:45;;;;;;;;;;;;;;;15.47;100.00;101428.03;5059568;28;19917;-57
2023/07/20 01:46:10;;;;;;;;;;;;;;;15.40;100.00;101434.84;5041387;28;19921;-55
2023/07/20 01:48:36;;;;;;;;;;;;;;;15.34;100.00;101428.66;5057440;28;19929;-56
2023/07/20 01:51:01;;;;;;;;;;;;;;;15.26;100.00;101432.00;5062180;27;19924;-56
2023/07/20 01:53:26;;;;;;;;;;;;;;;15.21;100.00;101438.81;5058649;28;19921;-56
2023/07/20 01:55:56;;;;;;;;;;;;;;;15.15;100.00;101433.53;5063032;28;19944;-56
2023/07/20 01:58:21;;;;;;;;;;;;;;;15.11;100.00;101436.06;5058132;28;20267;-56
2023/07/20 02:00:46;;;;;;;;;;;;;;;15.07;100.00;101444.59;5060964;28;19947;-57
2023/07/20 02:03:12;;;;;;;;;;;;;;;15.02;100.00;101432.44;5060785;28;20019;-57
2023/07/20 02:05:37;;;;;;;;;;;;;;;15.00;100.00;101438.44;5059209;28;20647;-56
2023/07/20 02:08:03;;;;;;;;;;;;;;;14.93;100.00;101440.03;5054322;28;19920;-56
2023/07/20 02:10:28;;;;;;;;;;;;;;;14.89;100.00;101437.34;5058893;28;20294;-56
2023/07/20 02:12:53;;;;;;;;;;;;;;;14.86;100.00;101439.88;5061959;28;19924;-56
2023/07/20 02:15:19;;;;;;;;;;;;;;;14.83;100.00;101439.81;5059048;28;19936;-56
2023/07/20 02:17:44;;;;;;;;;;;;;;;14.82;100.00;101441.53;5061769;28;19924;-57
2023/07/20 02:20:10;;;;;;;;;;;;;;;14.82;100.00;101444.13;5043912;28;19925;-56
2023/07/20 02:22:35;;;;;;;;;;;;;;;14.84;100.00;101457.09;5061916;28;19965;-56
2023/07/20 02:25:01;;;;;;;;;;;;;;;14.87;100.00;101446.81;5062376;28;20275;-56
2023/07/20 02:27:26;;;;;;;;;;;;;;;14.89;100.00;101452.88;5064333;27;19974;-57
2023/07/20 02:29:51;;;;;;;;;;;;;;;14.90;100.00;101452.91;5060281;28;19927;-56
2023/07/20 02:32:16;;;;;;;;;;;;;;;14.93;100.00;101452.97;5071042;28;20377;-56
2023/07/20 02:34:42;;;;;;;;;;;;;;;14.95;100.00;101459.06;5066670;28;19921;-56
2023/07/20 02:37:07;;;;;;;;;;;;;;;14.94;100.00;101454.72;5065236;28;19916;-54
2023/07/20 02:39:32;;;;;;;;;;;;;;;14.93;100.00;101454.69;5063022;28;20018;-53
2023/07/20 02:41:57;;;;;;;;;;;;;;;14.92;100.00;101456.38;5055826;28;19924;-55
2023/07/20 02:44:23;;;;;;;;;;;;;;;14.90;100.00;101460.69;5062848;28;19928;-54
2023/07/20 02:46:51;;;;;;;;;;;;;;;14.87;100.00;101458.03;5059811;28;20408;-53
2023/07/20 02:49:16;;;;;;;;;;;;;;;14.82;100.00;101464.84;5064043;28;19976;-55
2023/07/20 02:51:42;;;;;;;;;;;;;;;14.77;100.00;101466.47;5063702;28;19920;-55
2023/07/20 02:54:08;;;;;;;;;;;;;;;14.72;100.00;101474.13;5061352;28;19920;-54
2023/07/20 02:56:33;;;;;;;;;;;;;;;14.69;100.00;101473.19;5064445;28;19924;-56
2023/07/20 02:58:58;;;;;;;;;;;;;;;14.62;100.00;101471.28;5059868;28;19938;-56
2023/07/20 03:01:24;;;;;;;;;;;;;;;14.56;100.00;101468.59;5064126;28;20351;-56
2023/07/20 03:03:49;;;;;;;;;;;;;;;14.52;100.00;101474.56;5063661;28;19928;-56
2023/07/20 03:06:15;;;;;;;;;;;;;;;14.49;100.00;101485.69;5048338;28;19951;-56
2023/07/20 03:08:41;;;;;;;;;;;;;;;14.45;100.00;101484.72;5044475;28;19916;-57
2023/07/20 03:11:07;;;;;;;;;;;;;;;14.43;100.00;101494.16;5063101;28;19977;-55
2023/07/20 03:13:32;;;;;;;;;;;;;;;14.41;100.00;101490.66;5059399;28;19927;-57
2023/07/20 03:15:57;;;;;;;;;;;;;;;14.42;100.00;101497.59;5063244;28;19977;-56
2023/07/20 03:18:22;;;;;;;;;;;;;;;14.41;100.00;101493.25;5062842;28;19928;-57
2023/07/20 03:20:48;;;;;;;;;;;;;;;14.39;100.00;101492.38;5059666;27;19924;-56
2023/07/20 03:23:14;;;;;;;;;;;;;;;14.38;100.00;101490.63;5055776;28;19928;-56
2023/07/20 03:25:40;;;;;;;;;;;;;;;14.36;100.00;101505.22;5063350;28;19984;-57
2023/07/20 03:28:05;;;;;;;;;;;;;;;14.36;100.00;101499.16;5059043;28;20379;-57
2023/07/20 03:30:31;;;;;;;;;;;;;;;14.32;100.00;101495.66;5041569;28;20011;-56
2023/07/20 03:32:56;;;;;;;;;;;;;;;14.29;100.00;101503.34;5063711;28;19924;-57
2023/07/20 03:35:22;;;;;;;;;;;;;;;14.27;100.00;101507.59;5062567;28;20368;-57
2023/07/20 03:37:47;;;;;;;;;;;;;;;14.24;100.00;101497.16;5062458;28;19980;-56
2023/07/20 03:40:12;;;;;;;;;;;;;;;14.24;100.00;101499.75;5039309;28;19929;-56
2023/07/20 03:42:38;;;;;;;;;;;;;;;14.22;100.00;101506.63;5043848;28;20320;-57
2023/07/20 03:45:04;;;;;;;;;;;;;;;14.20;100.00;101505.72;5057725;28;20305;-57
2023/07/20 03:47:30;;;;;;;;;;;;;;;14.18;100.00;101509.97;5064150;28;20006;-56
2023/07/20 03:49:55;;;;;;;;;;;;;;;14.13;100.00;101506.38;5060701;28;20063;-56
2023/07/20 03:52:20;;;;;;;;;;;;;;;14.13;100.00;101511.56;5061265;28;19921;-56
2023/07/20 03:54:45;;;;;;;;;;;;;;;14.09;100.00;101510.63;5061386;28;20303;-56
2023/07/20 03:57:11;;;;;;;;;;;;;;;14.05;100.00;101513.09;5062171;28;19924;-57
2023/07/20 03:59:37;;;;;;;;;;;;;;;14.03;100.00;101520.81;5063989;28;19936;-56
2023/07/20 04:02:02;;;;;;;;;;;;;;;14.00;100.00;101514.69;5058382;28;19929;-57
2023/07/20 04:04:27;;;;;;;;;;;;;;;13.99;100.00;101524.16;5063506;28;20031;-56
2023/07/20 04:06:53;;;;;;;;;;;;;;;13.96;100.00;101513.75;5061747;28;19943;-57
2023/07/20 04:09:18;;;;;;;;;;;;;;;13.94;100.00;101521.47;5061851;28;19927;-57
2023/07/20 04:11:43;;;;;;;;;;;;;;;13.92;100.00;101517.09;5062869;28;19959;-57
2023/07/20 04:14:08;;;;;;;;;;;;;;;13.89;100.00;101524.75;5057508;28;20371;-57
2023/07/20 04:16:34;;;;;;;;;;;;;;;13.89;100.00;101529.94;5061412;28;20327;-57
2023/07/20 04:18:59;;;;;;;;;;;;;;;13.89;100.00;101528.25;5059716;28;19983;-57
2023/07/20 04:21:26;;;;;;;;;;;;;;;13.90;100.00;101530.00;5062360;28;20373;-56
2023/07/20 04:23:51;;;;;;;;;;;;;;;13.91;100.00;101515.34;5061783;28;19920;-57
2023/07/20 04:26:17;;;;;;;;;;;;;;;13.95;100.00;101532.66;5060933;28;19965;-56
2023/07/20 04:28:42;;;;;;;;;;;;;;;13.94;100.00;101521.47;5062974;28;19920;-56
2023/07/20 04:31:14;;;;;;;;;;;;;;;13.95;100.00;101520.66;5064979;28;20425;-57
2023/07/20 04:33:39;;;;;;;;;;;;;;;13.97;100.00;101523.25;5057683;28;20027;-56
2023/07/20 04:36:05;;;;;;;;;;;;;;;13.98;100.00;101522.41;5059071;28;20003;-58
2023/07/20 04:38:30;;;;;;;;;;;;;;;14.09;100.00;101523.56;5059485;28;19921;-57
2023/07/20 04:40:55;;;;;;;;;;;;;;;14.53;100.00;101520.28;5057578;28;19924;-56
2023/07/20 04:43:20;;;;;;;;;;;;;;;15.17;100.00;101526.84;5040797;28;20037;-56
2023/07/20 04:45:46;;;;;;;;;;;;;;;15.77;100.00;101523.63;5060338;28;19933;-57
2023/07/20 04:48:12;;;;;;;;;;;;;;;16.23;100.00;101521.81;5055796;28;20368;-56
2023/07/20 04:50:38;;;;;;;;;;;;;;;16.31;100.00;101530.56;5061406;28;19924;-57
2023/07/20 04:53:03;;;;;;;;;;;;;;;16.20;100.00;101530.44;5059271;28;19916;-56
2023/07/20 04:55:29;;;;;;;;;;;;;;;16.38;100.00;101528.94;5062204;28;19928;-56
2023/07/20 04:57:54;;;;;;;;;;;;;;;16.52;100.00;101530.91;5060904;28;19917;-56
2023/07/20 05:00:19;;;;;;;;;;;;;;;16.34;100.00;101526.31;5063109;28;20427;-56
2023/07/20 05:02:45;;;;;;;;;;;;;;;16.20;100.00;101521.75;5057218;28;19931;-56
2023/07/20 05:05:10;;;;;;;;;;;;;;;16.00;100.00;101527.50;5057870;28;19935;-56
2023/07/20 05:07:35;;;;;;;;;;;;;;;15.79;100.00;101527.16;5062771;28;20374;-58
2023/07/20 05:10:00;;;;;;;;;;;;;;;15.69;100.00;101522.63;5059597;28;20011;-57
2023/07/20 05:12:26;;;;;;;;;;;;;;;15.68;100.00;101523.50;5061645;28;19928;-56
2023/07/20 05:14:51;;;;;;;;;;;;;;;15.82;100.00;101528.06;5061119;28;19921;-57
2023/07/20 05:17:16;;;;;;;;;;;;;;;16.18;100.00;101526.03;5058710;28;20430;-57
2023/07/20 05:19:41;;;;;;;;;;;;;;;16.69;100.00;101525.06;5062770;28;19921;-57
2023/07/20 05:22:07;;;;;;;;;;;;;;;17.06;100.00;101524.72;5061521;28;19931;-56
2023/07/20 05:24:32;;;;;;;;;;;;;;;17.20;100.00;101518.81;5061389;27;19932;-56
2023/07/20 05:26:58;;;;;;;;;;;;;;;17.11;100.00;101525.66;5043826;28;19920;-56
2023/07/20 05:29:23;;;;;;;;;;;;;;;17.36;100.00;101531.13;5058896;28;19955;-58
2023/07/20 05:31:49;;;;;;;;;;;;;;;17.66;100.00;101535.78;5055439;27;19917;-56
2023/07/20 05:34:14;;;;;;;;;;;;;;;17.82;99.17;101542.88;5051956;27;19929;-57
2023/07/20 05:36:39;;;;;;;;;;;;;;;17.86;97.69;101541.19;5054455;28;20052;-56
2023/07/20 05:39:05;;;;;;;;;;;;;;;17.99;98.27;101549.97;5056251;28;19928;-56
2023/07/20 05:41:30;;;;;;;;;;;;;;;18.13;96.96;101551.81;5057772;28;19956;-57
2023/07/20 05:43:55;;;;;;;;;;;;;;;18.28;96.72;101558.00;5056147;28;19921;-57
2023/07/20 05:46:20;;;;;;;;;;;;;;;18.36;95.77;101556.31;5061221;28;19924;-55
2023/07/20 05:48:46;;;;;;;;;;;;;;;18.42;96.16;101556.38;5055153;28;19927;-56
2023/07/20 05:51:11;;;;;;;;;;;;;;;18.43;94.32;101558.09;5056363;28;20428;-56
2023/07/20 05:53:37;;;;;;;;;;;;;;;18.30;95.80;101561.47;5059072;28;20015;-57
2023/07/20 05:56:03;;;;;;;;;;;;;;;18.09;96.20;101563.06;5061580;28;19935;-57
2023/07/20 05:58:28;;;;;;;;;;;;;;;18.04;95.86;101558.69;5057889;28;19920;-56
2023/07/20 06:00:53;;;;;;;;;;;;;;;18.17;96.73;101565.72;5058658;28;19985;-58
2023/07/20 06:03:21;;;;;;;;;;;;;;;18.37;95.68;101560.66;5058588;28;20366;-57
2023/07/20 06:05:46;;;;;;;;;;;;;;;18.38;95.47;101555.50;5060621;28;19940;-56
2023/07/20 06:08:11;;;;;;;;;;;;;;;18.55;95.95;101555.56;5061210;28;20299;-56
2023/07/20 06:10:37;;;;;;;;;;;;;;;18.78;93.52;101562.69;5041031;28;19956;-56
2023/07/20 06:13:02;;;;;;;;;;;;;;;18.95;93.27;101558.44;5058227;28;19932;-57
2023/07/20 06:15:28;;;;;;;;;;;;;;;18.93;91.83;101562.78;5063182;27;20342;-56
2023/07/20 06:17:54;;;;;;;;;;;;;;;18.76;91.69;101565.31;5064072;28;19924;-57
2023/07/20 06:20:19;;;;;;;;;;;;;;;18.70;92.38;101575.69;5042674;28;19935;-57
2023/07/20 06:22:45;;;;;;;;;;;;;;;18.89;92.63;101574.06;5055445;28;20398;-57
2023/07/20 06:25:10;;;;;;;;;;;;;;;18.94;90.67;101577.56;5060627;28;19924;-57
2023/07/20 06:27:36;;;;;;;;;;;;;;;18.86;91.63;101585.31;5063215;28;20323;-56
2023/07/20 06:30:01;;;;;;;;;;;;;;;18.71;91.86;101586.09;5060796;28;19981;-57
2023/07/20 06:32:26;;;;;;;;;;;;;;;18.52;92.55;101589.44;5068717;28;20601;-57
2023/07/20 06:34:52;;;;;;;;;;;;;;;18.46;92.44;101590.25;5063175;28;19960;-57
2023/07/20 06:37:17;;;;;;;;;;;;;;;18.39;92.43;101583.25;5059621;28;20006;-56
2023/07/20 06:39:42;;;;;;;;;;;;;;;18.22;92.64;101575.31;5055965;28;19920;-56
2023/07/20 06:42:07;;;;;;;;;;;;;;;17.98;92.38;101569.91;5058229;28;19929;-57
2023/07/20 06:44:33;;;;;;;;;;;;;;;17.68;93.70;101567.84;5037019;28;21087;-57
2023/07/20 06:46:58;;;;;;;;;;;;;;;17.47;94.39;101571.09;5059975;28;19921;-57
2023/07/20 06:49:24;;;;;;;;;;;;;;;17.32;95.09;101571.78;5062262;28;19960;-57
2023/07/20 06:51:50;;;;;;;;;;;;;;;17.27;95.59;101564.78;5055375;28;19917;-57
2023/07/20 06:54:15;;;;;;;;;;;;;;;17.27;95.82;101575.19;5057126;28;19920;-56
2023/07/20 06:56:40;;;;;;;;;;;;;;;17.47;95.32;101578.00;5056559;28;19924;-57
2023/07/20 06:59:06;;;;;;;;;;;;;;;17.86;96.20;101572.41;5059831;28;19968;-57
2023/07/20 07:01:31;;;;;;;;;;;;;;;18.31;93.70;101582.31;5060855;28;19925;-56
2023/07/20 07:03:56;;;;;;;;;;;;;;;18.59;90.63;101591.22;5039311;28;19931;-58
2023/07/20 07:06:22;;;;;;;;;;;;;;;18.85;90.25;101580.09;5054652;28;20331;-56
2023/07/20 07:08:47;;;;;;;;;;;;;;;19.14;87.30;101580.25;5060621;28;20290;-56
2023/07/20 07:11:13;;;;;;;;;;;;;;;19.16;88.19;101579.38;5061708;28;20383;-56
2023/07/20 07:13:38;;;;;;;;;;;;;;;19.07;87.40;101579.34;5060380;28;19917;-56
2023/07/20 07:16:04;;;;;;;;;;;;;;;18.98;88.75;101587.97;5058651;28;20450;-57
2023/07/20 07:18:29;;;;;;;;;;;;;;;18.98;89.12;101584.50;5061457;28;20267;-57
2023/07/20 07:20:54;;;;;;;;;;;;;;;19.17;88.51;101577.63;5030582;28;19957;-56
2023/07/20 07:23:20;;;;;;;;;;;;;;;19.31;87.36;101594.22;5057339;28;20020;-56
2023/07/20 07:25:45;;;;;;;;;;;;;;;19.18;87.21;101592.44;5064444;28;19921;-58
2023/07/20 07:28:11;;;;;;;;;;;;;;;19.09;87.15;101589.78;5065103;28;19944;-57
2023/07/20 07:30:36;;;;;;;;;;;;;;;18.99;85.89;101588.88;5057007;27;19925;-58
2023/07/20 07:33:01;;;;;;;;;;;;;;;19.11;83.74;101588.03;5057679;28;19943;-58
2023/07/20 07:35:26;;;;;;;;;;;;;;;19.30;82.85;101589.88;5063818;28;19921;-58
2023/07/20 07:37:52;;;;;;;;;;;;;;;19.51;81.39;101589.06;5066023;28;19931;-58
2023/07/20 07:40:18;;;;;;;;;;;;;;;19.83;78.89;101595.25;5063513;27;19933;-57
2023/07/20 07:42:44;;;;;;;;;;;;;;;20.11;80.76;101586.59;5066469;28;19994;-59
2023/07/20 07:45:09;;;;;;;;;;;;;;;20.35;80.15;101591.81;5061943;27;19913;-58
2023/07/20 07:47:34;;;;;;;;;;;;;;;20.78;77.74;101587.41;5057103;28;19935;-59
2023/07/20 07:50:00;;;;;;;;;;;;;;;20.87;71.69;101595.25;5058318;27;20378;-58
2023/07/20 07:52:25;;;;;;;;;;;;;;;21.02;75.21;101598.66;5060958;28;19920;-58
2023/07/20 07:54:50;;;;;;;;;;;;;;;21.35;74.70;101595.94;5066746;28;19931;-58
2023/07/20 07:57:15;;;;;;;;;;;;;;;21.68;73.72;101602.75;5056067;28;19917;-59
2023/07/20 07:59:41;;;;;;;;;;;;;;;21.78;66.04;101595.72;5062428;28;19968;-59
2023/07/20 08:02:06;;;;;;;;;;;;;;;21.61;72.71;101608.91;5062746;28;19933;-59
2023/07/20 08:04:31;;;;;;;;;;;;;;;21.54;70.44;101604.59;5065345;28;19920;-58
2023/07/20 08:06:57;;;;;;;;;;;;;;;21.20;69.96;101610.81;5062855;27;20381;-58
2023/07/20 08:09:23;;;;;;;;;;;;;;;20.87;70.33;101613.53;5062057;28;19919;-57
2023/07/20 08:11:49;;;;;;;;;;;;;;;20.48;71.73;101616.22;5062434;28;19931;-58
2023/07/20 08:14:15;;;;;;;;;;;;;;;20.19;71.71;101616.19;5061391;28;19923;-58
2023/07/20 08:16:40;;;;;;;;;;;;;;;19.94;73.04;101616.16;5064380;27;19921;-58
2023/07/20 08:19:05;;;;;;;;;;;;;;;19.72;74.15;101623.09;5056172;28;20275;-58
2023/07/20 08:21:30;;;;;;;;;;;;;;;19.56;74.57;101622.13;5058688;28;20019;-58
2023/07/20 08:23:56;;;;;;;;;;;;;;;19.36;75.76;101623.81;5041938;28;19916;-58
2023/07/20 08:26:22;;;;;;;;;;;;;;;19.20;76.35;101622.00;5045430;28;19961;-58
2023/07/20 08:28:48;;;;;;;;;;;;;;;19.04;77.47;101615.81;5066332;27;19972;-56
2023/07/20 08:31:13;;;;;;;;;;;;;;;19.00;77.18;101620.16;5066624;28;20341;-57
2023/07/20 08:33:38;;;;;;;;;;;;;;;18.99;77.26;101621.03;5064685;28;19924;-57
2023/07/20 08:36:05;;;;;;;;;;;;;;;19.18;76.12;101613.31;5059785;28;19917;-58
2023/07/20 08:38:31;;;;;;;;;;;;;;;19.63;76.98;101619.56;5057541;28;20236;-58
2023/07/20 08:40:56;;;;;;;;;;;;;;;20.10;72.12;101617.06;5061076;28;20426;-58
2023/07/20 08:43:23;;;;;;;;;;;;;;;20.37;73.73;101621.41;5060297;28;20012;-57
2023/07/20 08:45:50;;;;;;;;;;;;;;;20.78;70.97;101610.94;5062062;28;20034;-50
2023/07/20 08:48:15;;;;;;;;;;;;;;;21.37;71.93;101609.91;5062995;27;19970;-50
2023/07/20 08:50:41;;;;;;;;;;;;;;;21.88;70.40;101613.09;5062847;28;19956;-49
2023/07/20 08:53:07;;;;;;;;;;;;;;;22.09;67.89;101601.63;5047039;28;20662;-51
2023/07/20 08:55:34;;;;;;;;;;;;;;;22.14;68.21;101601.56;5059431;28;20429;-48
2023/07/20 08:58:00;;;;;;;;;;;;;;;21.88;64.53;101613.09;5059838;28;19964;-50
2023/07/20 09:00:26;;;;;;;;;;;;;;;21.57;68.58;101608.94;5060067;28;19924;-48
2023/07/20 09:02:55;;;;;;;;;;;;;;;21.59;66.41;101612.41;5060326;28;20397;-50
2023/07/20 09:05:22;;;;;;;;;;;;;;;21.38;67.35;101606.41;5059768;28;20429;-49
2023/07/20 09:07:48;;;;;;;;;;;;;;;21.39;65.92;101609.88;5040815;28;19934;-50
2023/07/20 09:10:13;;;;;;;;;;;;;;;21.59;65.54;101601.91;5061721;28;19925;-51
2023/07/20 09:12:39;;;;;;;;;;;;;;;21.63;66.69;101606.28;5059639;28;20386;-48
2023/07/20 09:15:05;;;;;;;;;;;;;;;21.41;66.16;101610.72;5060643;28;19956;-47
2023/07/20 09:17:31;;;;;;;;;;;;;;;21.31;66.77;101606.44;5042393;28;20437;-48
2023/07/20 09:19:56;;;;;;;;;;;;;;;21.18;64.78;101605.59;5046367;28;19916;-48
2023/07/20 09:22:21;;;;;;;;;;;;;;;21.00;66.22;101606.53;5061964;27;19953;-48
2023/07/20 09:24:46;;;;;;;;;;;;;;;20.95;67.48;101605.66;5063496;28;19964;-49
2023/07/20 09:27:12;;;;;;;;;;;;;;;21.09;67.36;101600.38;5045570;28;19931;-51
2023/07/20 09:29:50;;;;;;;;;;;;;;;21.32;66.46;101595.97;5064887;28;19996;-50
2023/07/20 09:32:18;;;;;;;;;;;;;;;21.61;63.06;101593.19;5058987;28;20412;-48
2023/07/20 09:34:43;;;;;;;;;;;;;;;21.91;62.70;101594.75;5062799;28;19913;-50
2023/07/20 09:37:08;;;;;;;;;;;;;;;21.95;60.17;101598.19;5040370;28;19935;-49
2023/07/20 09:39:42;;;;;;;;;;;;;;;21.99;63.05;101594.69;5060206;27;19923;-48
2023/07/20 09:42:08;;;;;;;;;;;;;;;22.09;60.31;101590.25;5057585;28;19924;-48
2023/07/20 09:44:33;;;;;;;;;;;;;;;22.01;55.78;101594.66;5061282;28;19968;-50
2023/07/20 09:46:59;;;;;;;;;;;;;;;21.94;58.26;101586.00;5058733;28;20386;-49
2023/07/20 09:49:24;;;;;;;;;;;;;;;21.93;61.13;101587.75;5045111;28;19924;-50
2023/07/20 09:51:50;;;;;;;;;;;;;;;21.91;59.26;101579.03;5061170;28;19917;-48
2023/07/20 09:54:16;;;;;;;;;;;;;;;22.01;60.75;101584.19;5063001;28;20292;-48
2023/07/20 09:56:42;;;;;;;;;;;;;;;22.24;58.68;101587.53;5065651;28;20387;-51
2023/07/20 09:59:07;;;;;;;;;;;;;;;22.38;57.12;101577.78;5050815;28;19924;-50
2023/07/20 10:01:32;;;;;;;;;;;;;;;22.40;57.62;101580.41;5040647;28;20027;-48
2023/07/20 10:04:01;;;;;;;;;;;;;;;22.40;58.46;101577.78;5060917;28;19932;-48
2023/07/20 10:06:28;;;;;;;;;;;;;;;22.50;59.28;101582.03;5040535;28;19923;-52
2023/07/20 10:08:55;;;;;;;;;;;;;;;22.67;57.44;101587.13;5057290;28;19916;-51
2023/07/20 10:11:21;;;;;;;;;;;;;;;22.75;57.75;101580.94;5061441;28;19916;-49
2023/07/20 10:13:50;;;;;;;;;;;;;;;22.88;54.73;101580.81;5060889;28;19921;-51
2023/07/20 10:16:21;;;;;;;;;;;;;;;22.81;56.35;101568.59;5062959;28;19999;-50
2023/07/20 10:18:51;;;;;;;;;;;;;;;22.81;53.82;101573.84;5068332;28;19928;-50
2023/07/20 10:21:17;;;;;;;;;;;;;;;22.65;57.10;101570.56;5063744;28;20059;-51
2023/07/20 10:23:42;;;;;;;;;;;;;;;22.71;57.20;101565.25;5065964;28;20008;-54
2023/07/20 10:26:09;;;;;;;;;;;;;;;22.65;57.06;101568.78;5047203;28;19963;-50
2023/07/20 10:28:34;;;;;;;;;;;;;;;22.57;56.56;101569.75;5069157;28;20031;-49
2023/07/20 10:31:00;;;;;;;;;;;;;;;22.63;58.64;101556.56;5069230;27;19928;-51
2023/07/20 10:33:25;;;;;;;;;;;;;;;22.71;56.19;101565.25;5069556;28;19939;-59
2023/07/20 10:35:55;;;;;;;;;;;;;;;22.67;56.70;101563.53;5072878;28;20016;-57
2023/07/20 10:38:37;;;;;;;;;;;;;;;22.55;55.33;101567.16;5066743;28;19916;-57
2023/07/20 10:41:02;;;;;;;;;;;;;;;22.17;57.43;101560.53;5061331;28;19965;-57
2023/07/20 10:43:28;;;;;;;;;;;;;;;22.10;59.60;101564.09;5062924;27;19916;-58
2023/07/20 10:45:53;;;;;;;;;;;;;;;22.23;56.01;101561.34;5061894;28;19925;-59
2023/07/20 10:48:22;;;;;;;;;;;;;;;22.47;57.50;101548.88;5065308;28;19919;-59
2023/07/20 10:51:11;;;;;;;;;;;;;;;22.70;53.40;101551.25;5067782;28;19955;-58
2023/07/20 10:53:36;;;;;;;;;;;;;;;22.77;55.74;101552.06;5056648;28;20324;-59
2023/07/20 10:56:12;;;;;;;;;;;;;;;22.74;55.64;101546.84;5063418;28;19924;-63
2023/07/20 10:58:37;;;;;;;;;;;;;;;22.65;54.95;101554.81;5071901;28;20011;-51
2023/07/20 11:01:03;;;;;;;;;;;;;;;22.45;56.95;101555.03;5062815;28;20011;-51
2023/07/20 11:03:38;;;;;;;;;;;;;;;22.33;56.41;101553.41;5061226;28;19928;-50
2023/07/20 11:06:22;;;;;;;;;;;;;;;22.34;53.94;101554.28;5059153;27;19916;-51
2023/07/20 11:08:48;;;;;;;;;;;;;;;22.27;57.29;101550.84;5054403;27;19925;-49
2023/07/20 11:11:32;;;;;;;;;;;;;;;22.21;55.01;101556.13;5056221;27;20293;-50
2023/07/20 11:13:58;;;;;;;;;;;;;;;22.24;56.52;101555.22;5059266;28;19920;-51
2023/07/20 11:16:33;;;;;;;;;;;;;;;22.24;57.01;101547.38;5059568;28;19928;-49
2023/07/20 11:18:59;;;;;;;;;;;;;;;22.16;55.41;101552.69;5061933;28;20448;-50
2023/07/20 11:21:24;;;;;;;;;;;;;;;21.93;52.08;101545.84;5057831;28;20383;-50
2023/07/20 11:23:50;;;;;;;;;;;;;;;21.81;53.72;101540.72;5064174;28;19920;-59
2023/07/20 11:26:16;;;;;;;;;;;;;;;22.03;53.76;101538.81;5064607;28;20016;-59
2023/07/20 11:28:41;;;;;;;;;;;;;;;22.52;52.03;101530.50;5056253;28;19977;-58
2023/07/20 11:31:06;;;;;;;;;;;;;;;22.83;51.14;101535.41;5059695;28;19920;-58
2023/07/20 11:33:31;;;;;;;;;;;;;;;23.04;50.86;101534.28;5060275;28;20497;-57
2023/07/20 11:35:57;;;;;;;;;;;;;;;23.37;50.16;101527.72;5063131;27;19931;-56
2023/07/20 11:38:23;;;;;;;;;;;;;;;23.42;50.66;101531.13;5059952;28;19917;-57
2023/07/20 11:40:49;;;;;;;;;;;;;;;23.60;51.49;101527.34;5058525;28;19956;-58
2023/07/20 11:43:14;;;;;;;;;;;;;;;23.67;52.23;101523.81;5061103;28;20297;-58
2023/07/20 11:45:40;;;;;;;;;;;;;;;23.52;51.45;101523.09;5053461;28;19921;-57
2023/07/20 11:48:05;;;;;;;;;;;;;;;23.57;50.86;101525.66;5061870;28;19920;-58
2023/07/20 11:50:30;;;;;;;;;;;;;;;23.73;50.32;101526.34;5062560;28;19912;-57
2023/07/20 11:52:56;;;;;;;;;;;;;;;23.50;48.64;101524.03;5066954;27;19912;-58
2023/07/20 11:55:22;;;;;;;;;;;;;;;23.40;50.19;101527.66;5066574;28;19939;-57
2023/07/20 11:58:03;;;;;;;;;;;;;;;23.34;52.08;101523.38;5065818;28;20424;-57
2023/07/20 12:00:28;;;;;;;;;;;;;;;23.25;49.87;101516.50;5062930;28;20034;-57
2023/07/20 12:02:53;;;;;;;;;;;;;;;23.29;51.41;101509.44;5067105;28;20011;-57
2023/07/20 12:05:19;;;;;;;;;;;;;;;23.39;51.32;101513.69;5060821;28;20035;-58
2023/07/20 12:07:47;;;;;;;;;;;;;;;23.47;50.74;101508.31;5065405;28;21362;-56
2023/07/20 12:10:13;;;;;;;;;;;;;;;23.48;49.31;101517.94;5070201;28;19921;-57
2023/07/20 12:12:40;;;;;;;;;;;;;;;23.45;49.37;101510.09;5059450;28;19981;-58
2023/07/20 12:15:31;;;;;;;;;;;;;;;23.55;52.03;101511.69;5062651;28;20378;-57
2023/07/20 12:17:59;;;;;;;;;;;;;;;23.72;51.45;101517.59;5063170;27;20003;-57
2023/07/20 12:20:43;;;;;;;;;;;;;;;23.79;51.39;101508.72;5062920;28;19916;-58
2023/07/20 12:23:09;;;;;;;;;;;;;;;23.87;50.93;101508.59;5058077;28;19926;-58
2023/07/20 12:25:41;;;;;;;;;;;;;;;23.94;52.29;101499.69;5061679;28;20158;-58
2023/07/20 12:28:08;;;;;;;;;;;;;;;24.12;51.10;101503.78;5058682;28;19921;-58